Lincoln, NE (68521)

9:02 AM CST on December 03, 2016 (GMT -0600)
Fallbrook | | Change Station

Elev 1296 ft 40.88 °N, 96.73 °W | Updated 2 minutes ago

Overcast
Overcast
26.8 °F
Feels Like 27 °F
N
0.0
Wind Variable Wind from ESE
Gusts 10.0 mph

Today
High -- | Low -- °F
--% Chance of Precip.
Yesterday
High -- | Low -- °F
Precip. -- in
Pressure 30.32 in
Visibility 9.0 miles
Clouds Overcast 10000 ft
Windchill 27 °F
Dew Point 25 °F
Humidity 94%
Rainfall 0.00 in
Snow Depth Not available.
7:34 AM 4:59 PM
Waxing Crescent, 15% visible
METAR KLNK 031454Z 00000KT 9SM OVC100 M02/M04 A3028 RMK AO2 SLP267 T10221039 55005
Pressure 30.32 in
Visibility 9.0 miles
Clouds Overcast 10000 ft
Windchill 27 °F
Dew Point 25 °F
Humidity 94%
Rainfall 0.00 in
Snow Depth Not available.
7:34 AM 4:59 PM
Waxing Crescent, 15% visible
METAR KLNK 031454Z 00000KT 9SM OVC100 M02/M04 A3028 RMK AO2 SLP267 T10221039 55005

10-Day Weather Forecast

Almanac

Astronomy

Dec. 03, 2016 Rise Set
Actual Time
Civil Twilight
Nautical Twilight
Astronomical Twilight
Moon
Length of Visible Light
Length of Day
Tomorrow will be .
, % of the Moon is Illuminated

Today's Extremes

State Highs State Lows

Community

WunderPhotos

Upload Photos

1,955,456 photos uploaded!

WunderBlog® & News

Nearby

Air Quality

  Air Quality AQ Index Pollutant
Not available.

Snow Depth

Station Depth Elevation

Earthquake Activity

City Distance Mag. Time & Date
Minimum magnitude displayed is 2.5.

Coastal Water Temperatures

Place Temperature

Stations

Nearby Weather Stations

Station Location Temp. Windchill Dew Point Humidity Wind Precip. Elev Updated Type
                   

Watches & Warnings

There are currently no watches in effect.